createdAt,value
2023-04-02T00:01:51.649Z,0.60
2023-04-02T00:04:23.189Z,0.70
2023-04-02T00:06:55.460Z,0.65
2023-04-02T00:09:27.547Z,0.50
2023-04-02T00:11:56.949Z,0.70
2023-04-02T00:14:30.052Z,0.70
2023-04-02T00:16:59.605Z,0.50
2023-04-02T00:19:35.187Z,0.65
2023-04-02T00:22:03.157Z,0.60
2023-04-02T00:24:29.632Z,0.77
2023-04-02T00:26:56.187Z,0.90
2023-04-02T00:29:22.772Z,0.60
2023-04-02T00:31:54.387Z,0.50
2023-04-02T00:34:22.408Z,0.50
2023-04-02T00:36:51.008Z,0.60
2023-04-02T00:39:22.362Z,0.57
2023-04-02T00:42:05.000Z,0.80
2023-04-02T00:44:34.228Z,0.60
2023-04-02T00:47:35.397Z,0.70
2023-04-02T00:50:22.008Z,0.70
2023-04-02T00:52:52.419Z,0.80
2023-04-02T00:55:32.916Z,0.52
2023-04-02T00:58:01.137Z,0.50
2023-04-02T01:00:32.059Z,0.60
2023-04-02T01:03:22.778Z,0.70
2023-04-02T01:05:55.764Z,0.60
2023-04-02T01:08:42.951Z,0.47
2023-04-02T01:11:30.777Z,0.70
2023-04-02T01:14:36.625Z,0.68
2023-04-02T01:17:11.246Z,0.63
2023-04-02T01:20:28.893Z,0.60
2023-04-02T01:23:08.055Z,0.60
2023-04-02T01:25:43.292Z,0.60
2023-04-02T01:28:29.441Z,0.80
2023-04-02T01:30:58.810Z,1.35
2023-04-02T01:33:30.236Z,0.73
2023-04-02T01:36:11.629Z,1.25
2023-04-02T01:38:47.875Z,0.90
2023-04-02T01:41:28.380Z,0.98
2023-04-02T01:44:41.862Z,0.73
2023-04-02T01:47:14.678Z,0.90
2023-04-02T01:49:43.566Z,0.70
2023-04-02T01:52:17.279Z,0.80
2023-04-02T01:54:45.570Z,1.00
2023-04-02T01:57:12.305Z,0.90
2023-04-02T01:59:39.976Z,0.63
2023-04-02T02:02:12.409Z,0.80
2023-04-02T02:04:40.957Z,0.95
2023-04-02T02:07:16.256Z,1.27
2023-04-02T02:09:48.833Z,1.65
2023-04-02T02:12:16.064Z,1.05
2023-04-02T02:14:50.761Z,1.30
2023-04-02T02:17:28.085Z,0.90
2023-04-02T02:19:59.431Z,1.17
2023-04-02T02:22:33.694Z,1.20
2023-04-02T02:25:03.071Z,0.95
2023-04-02T02:27:49.902Z,0.80
2023-04-02T02:30:27.360Z,0.80
2023-04-02T02:33:01.009Z,0.73
2023-04-02T02:35:34.402Z,0.82
2023-04-02T02:38:25.711Z,1.10
2023-04-02T02:40:56.855Z,1.02
2023-04-02T02:43:25.456Z,0.80
2023-04-02T02:45:53.959Z,0.73
2023-04-02T02:48:26.174Z,1.00
2023-04-02T02:51:17.994Z,1.00
2023-04-02T02:53:49.934Z,0.73
2023-04-02T02:56:17.049Z,0.70
2023-04-02T02:58:44.427Z,0.90
2023-04-02T03:01:18.731Z,0.73
2023-04-02T03:03:47.774Z,0.70
2023-04-02T03:06:17.168Z,0.80
2023-04-02T03:08:54.226Z,0.90
2023-04-02T03:11:50.604Z,0.70
2023-04-02T03:14:32.831Z,0.82
2023-04-02T03:17:08.786Z,0.80
2023-04-02T03:19:45.647Z,0.70
2023-04-02T03:22:37.577Z,0.70
2023-04-02T03:25:21.178Z,0.68
2023-04-02T03:27:51.582Z,0.65
2023-04-02T03:30:24.266Z,0.57
2023-04-02T03:32:56.340Z,0.70
2023-04-02T03:35:31.669Z,0.90
2023-04-02T03:38:13.017Z,0.80
2023-04-02T03:40:54.067Z,0.80
2023-04-02T03:43:25.805Z,0.60
2023-04-02T03:46:05.652Z,0.63
2023-04-02T03:48:46.631Z,0.65
2023-04-02T03:51:40.820Z,0.93
2023-04-02T03:54:15.509Z,0.50
2023-04-02T03:56:47.432Z,0.60
2023-04-02T03:59:34.657Z,0.50
2023-04-02T04:02:12.750Z,0.60
2023-04-02T04:04:41.988Z,0.50
2023-04-02T04:07:30.668Z,0.50
2023-04-02T04:09:59.482Z,0.68
2023-04-02T04:12:40.480Z,0.47
2023-04-02T04:15:15.281Z,0.70
2023-04-02T04:17:51.548Z,0.60
2023-04-02T04:20:25.965Z,0.50
2023-04-02T04:22:56.220Z,0.60
2023-04-02T04:25:30.444Z,0.50
2023-04-02T04:28:24.211Z,0.50
2023-04-02T04:31:17.850Z,0.50
2023-04-02T04:33:50.623Z,0.60
2023-04-02T04:36:27.819Z,0.50
2023-04-02T04:39:07.408Z,0.40
2023-04-02T04:41:38.673Z,0.50
2023-04-02T04:44:23.226Z,0.40
2023-04-02T04:49:44.254Z,0.50
2023-04-02T04:52:22.050Z,0.40
2023-04-02T04:54:48.775Z,0.40
2023-04-02T04:57:41.683Z,0.40
2023-04-02T05:00:22.616Z,0.60
2023-04-02T05:03:09.164Z,0.50
2023-04-02T05:05:39.505Z,0.52
2023-04-02T05:08:20.958Z,0.30
2023-04-02T05:10:58.105Z,0.47
2023-04-02T05:13:57.203Z,0.40
2023-04-02T05:16:29.546Z,0.40
2023-04-02T05:18:56.016Z,0.50
2023-04-02T05:21:33.195Z,0.45
2023-04-02T05:24:29.581Z,0.50
2023-04-02T05:27:02.670Z,0.40
2023-04-02T05:29:38.425Z,0.50
2023-04-02T05:32:17.122Z,0.40
2023-04-02T05:34:51.556Z,0.40
2023-04-02T05:37:21.005Z,0.40
2023-04-02T05:39:52.554Z,0.70
2023-04-02T05:42:31.578Z,0.52
2023-04-02T05:45:20.274Z,0.40
2023-04-02T05:47:51.900Z,0.57
2023-04-02T05:50:47.232Z,0.40
2023-04-02T05:53:28.851Z,0.40
2023-04-02T05:56:16.486Z,0.40
2023-04-02T05:58:50.224Z,0.40
2023-04-02T06:01:36.150Z,0.40
2023-04-02T06:04:30.240Z,0.40
2023-04-02T06:07:21.710Z,0.30
2023-04-02T06:10:04.985Z,0.40
2023-04-02T06:12:43.569Z,0.40
2023-04-02T06:17:58.369Z,0.40
2023-04-02T06:20:25.636Z,0.40
2023-04-02T06:23:31.269Z,0.30
2023-04-02T06:26:10.259Z,0.40
2023-04-02T06:28:46.205Z,0.40
2023-04-02T06:31:28.178Z,0.40
2023-04-02T06:33:56.442Z,0.80
2023-04-02T06:36:27.161Z,0.80
2023-04-02T06:38:59.092Z,0.70
2023-04-02T06:41:25.872Z,1.70
2023-04-02T06:44:16.909Z,0.60
2023-04-02T06:47:26.292Z,0.55
2023-04-02T06:50:13.975Z,0.70
2023-04-02T06:52:48.673Z,0.85
2023-04-02T06:55:46.587Z,0.40
2023-04-02T06:58:17.325Z,0.40
2023-04-02T07:00:46.624Z,0.40
2023-04-02T07:03:28.793Z,0.43
2023-04-02T07:05:59.954Z,0.93
2023-04-02T07:08:26.533Z,0.60
2023-04-02T07:10:52.993Z,0.50
2023-04-02T07:13:22.692Z,0.40
2023-04-02T07:15:52.341Z,0.50
2023-04-02T07:18:28.801Z,0.50
2023-04-02T07:20:56.971Z,0.60
2023-04-02T07:23:26.494Z,0.60
2023-04-02T07:25:54.552Z,0.40
2023-04-02T07:28:22.741Z,0.50
2023-04-02T07:30:50.460Z,0.40
2023-04-02T07:33:20.589Z,1.55
2023-04-02T07:35:48.070Z,1.33
2023-04-02T07:38:14.541Z,1.33
2023-04-02T07:40:41.166Z,1.02
2023-04-02T07:43:07.664Z,2.28
2023-04-02T07:45:34.785Z,0.85
2023-04-02T07:48:09.085Z,0.43
2023-04-02T07:50:35.999Z,0.45
2023-04-02T07:53:02.663Z,0.40
2023-04-02T07:55:29.144Z,0.32
2023-04-02T07:57:58.473Z,0.40
2023-04-02T08:00:26.639Z,0.40
2023-04-02T08:02:53.455Z,0.40
2023-04-02T08:05:19.996Z,0.38
2023-04-02T08:07:56.839Z,0.40
2023-04-02T08:10:24.180Z,0.40
2023-04-02T08:12:50.739Z,0.30
2023-04-02T08:15:17.402Z,0.30
2023-04-02T08:17:44.629Z,0.30
2023-04-02T08:20:18.081Z,0.40
2023-04-02T08:22:45.761Z,0.60
2023-04-02T08:25:12.841Z,0.30
2023-04-02T08:27:39.712Z,0.98
2023-04-02T08:30:08.810Z,0.40
2023-04-02T08:32:35.733Z,0.30
2023-04-02T08:35:02.627Z,0.40
2023-04-02T08:37:29.136Z,0.30
2023-04-02T08:39:55.739Z,0.30
2023-04-02T08:42:27.078Z,0.40
2023-04-02T08:45:21.271Z,0.40
2023-04-02T08:47:55.290Z,0.30
2023-04-02T08:50:44.601Z,0.25
2023-04-02T08:53:19.350Z,0.30
2023-04-02T08:56:08.350Z,0.30
2023-04-02T08:58:42.352Z,0.47
2023-04-02T09:01:27.249Z,0.30
2023-04-02T09:03:58.173Z,0.40
2023-04-02T09:06:26.092Z,0.20
2023-04-02T09:08:54.208Z,0.30
2023-04-02T09:11:24.925Z,2.38
2023-04-02T09:13:57.120Z,1.20
2023-04-02T09:16:46.877Z,1.55
2023-04-02T09:19:33.029Z,0.80
2023-04-02T09:22:06.412Z,1.10
2023-04-02T09:24:33.417Z,0.40
2023-04-02T09:27:00.045Z,0.50
2023-04-02T09:29:39.132Z,0.40
2023-04-02T09:32:21.878Z,0.90
2023-04-02T09:34:48.363Z,0.50
2023-04-02T09:37:18.836Z,1.08
2023-04-02T09:39:45.643Z,0.60
2023-04-02T09:42:36.241Z,0.90
2023-04-02T09:45:20.857Z,0.35
2023-04-02T09:47:48.201Z,0.38
2023-04-02T09:50:34.429Z,0.40
2023-04-02T09:53:31.226Z,0.40
2023-04-02T09:56:23.078Z,0.40
2023-04-02T09:59:18.263Z,0.30
2023-04-02T10:01:48.636Z,0.40
2023-04-02T10:04:44.959Z,0.40
2023-04-02T10:07:34.494Z,0.30
2023-04-02T10:10:21.183Z,0.40
2023-04-02T10:12:56.883Z,0.35
2023-04-02T10:15:33.071Z,0.40
2023-04-02T10:20:51.055Z,0.50
2023-04-02T10:23:19.496Z,0.50
2023-04-02T10:25:55.684Z,0.40
2023-04-02T10:31:17.299Z,0.43
2023-04-02T10:33:50.297Z,0.40
2023-04-02T10:36:50.474Z,0.50
2023-04-02T10:39:28.065Z,0.43
2023-04-02T10:42:01.842Z,0.32
2023-04-02T10:44:31.948Z,0.40
2023-04-02T10:47:08.019Z,0.70
2023-04-02T10:49:53.783Z,0.60
2023-04-02T10:52:26.646Z,0.30
2023-04-02T10:55:01.438Z,0.40
2023-04-02T10:57:35.044Z,0.63
2023-04-02T11:00:17.895Z,0.60
2023-04-02T11:03:11.303Z,3.17
2023-04-02T11:05:47.814Z,1.42
2023-04-02T11:08:28.208Z,0.80
2023-04-02T11:11:17.138Z,1.52
2023-04-02T11:13:59.321Z,2.00
2023-04-02T11:16:27.487Z,0.93
2023-04-02T11:19:15.830Z,0.73
2023-04-02T11:21:57.804Z,0.85
2023-04-02T11:24:34.480Z,2.20
2023-04-02T11:27:10.313Z,1.40
2023-04-02T11:29:52.797Z,1.45
2023-04-02T11:32:22.110Z,3.28
2023-04-02T11:34:56.420Z,2.25
2023-04-02T11:37:36.990Z,0.70
2023-04-02T11:40:44.624Z,0.50
2023-04-02T11:43:32.883Z,0.50
2023-04-02T11:46:26.647Z,0.50
2023-04-02T11:48:55.065Z,0.50
2023-04-02T11:51:22.409Z,0.50
2023-04-02T11:53:54.609Z,0.40
2023-04-02T11:56:52.139Z,0.38
2023-04-02T11:59:33.878Z,0.30
2023-04-02T12:02:50.087Z,0.30
2023-04-02T12:05:26.554Z,0.40
2023-04-02T12:08:24.287Z,0.50
2023-04-02T12:11:02.289Z,0.30
2023-04-02T12:13:41.065Z,0.40
2023-04-02T12:16:09.608Z,0.30
2023-04-02T12:18:41.629Z,0.30
2023-04-02T12:21:08.249Z,0.80
2023-04-02T12:23:37.081Z,0.40
2023-04-02T12:26:06.769Z,0.63
2023-04-02T12:28:33.914Z,0.40
2023-04-02T12:31:09.499Z,0.40
2023-04-02T12:33:38.236Z,0.45
2023-04-02T12:36:14.528Z,0.80
2023-04-02T12:38:53.853Z,0.50
2023-04-02T12:41:33.356Z,0.52
2023-04-02T12:44:06.388Z,0.60
2023-04-02T12:46:35.192Z,0.60
2023-04-02T12:49:19.774Z,0.50
2023-04-02T12:51:47.262Z,0.63
2023-04-02T12:54:18.391Z,0.40
2023-04-02T12:56:45.214Z,0.40
2023-04-02T12:59:31.960Z,0.32
2023-04-02T13:04:26.811Z,0.30
2023-04-02T13:06:56.964Z,1.25
2023-04-02T13:09:31.352Z,0.60
2023-04-02T13:11:58.266Z,0.50
2023-04-02T13:14:25.693Z,0.50
2023-04-02T13:16:52.220Z,0.40
2023-04-02T13:19:29.398Z,0.40
2023-04-02T13:21:58.538Z,0.40
2023-04-02T13:24:27.681Z,0.40
2023-04-02T13:26:57.228Z,0.38
2023-04-02T13:29:31.001Z,1.05
2023-04-02T13:32:03.390Z,0.70
2023-04-02T13:34:30.188Z,0.63
2023-04-02T13:36:57.450Z,0.50
2023-04-02T13:39:24.768Z,0.60
2023-04-02T13:42:02.788Z,0.40
2023-04-02T13:44:36.915Z,0.40
2023-04-02T13:47:03.637Z,0.50
2023-04-02T13:49:31.764Z,0.40
2023-04-02T13:52:04.201Z,0.45
2023-04-02T13:54:44.764Z,0.55
2023-04-02T13:57:11.753Z,1.15
2023-04-02T13:59:38.304Z,1.48
2023-04-02T14:02:17.976Z,0.70
2023-04-02T14:04:50.650Z,0.70
2023-04-02T14:07:42.314Z,0.40
2023-04-02T14:10:17.687Z,0.50
2023-04-02T14:13:03.278Z,0.30
2023-04-02T14:15:59.495Z,0.50
2023-04-02T14:18:59.233Z,0.30
2023-04-02T14:21:52.023Z,0.30
2023-04-02T14:24:21.056Z,0.35
2023-04-02T14:26:53.543Z,0.30
2023-04-02T14:29:37.796Z,0.50
2023-04-02T14:32:15.443Z,0.40
2023-04-02T14:34:53.408Z,0.30
2023-04-02T14:37:47.645Z,0.40
2023-04-02T14:40:23.770Z,0.40
2023-04-02T14:45:28.361Z,0.30
2023-04-02T14:48:02.088Z,0.30
2023-04-02T14:50:35.572Z,0.47
2023-04-02T14:53:12.313Z,0.30
2023-04-02T14:55:43.522Z,0.30
2023-04-02T14:58:18.839Z,0.30
2023-04-02T15:00:54.928Z,0.30
2023-04-02T15:06:41.604Z,0.30
2023-04-02T15:09:28.162Z,0.38
2023-04-02T15:14:39.720Z,0.40
2023-04-02T15:17:09.837Z,0.40
2023-04-02T15:19:36.249Z,0.40
2023-04-02T15:22:15.322Z,0.30
2023-04-02T15:25:10.388Z,0.50
2023-04-02T15:28:08.273Z,0.45
2023-04-02T15:30:38.086Z,0.50
2023-04-02T15:33:43.389Z,0.43
2023-04-02T15:36:29.466Z,0.90
2023-04-02T15:39:21.461Z,0.60
2023-04-02T15:42:30.875Z,0.50
2023-04-02T15:45:12.582Z,0.73
2023-04-02T15:48:08.495Z,0.40
2023-04-02T15:50:50.282Z,0.60
2023-04-02T15:53:34.193Z,1.27
2023-04-02T15:56:08.577Z,1.17
2023-04-02T15:59:28.751Z,0.90
2023-04-02T16:02:23.240Z,0.90
2023-04-02T16:05:03.314Z,0.90
2023-04-02T16:08:00.615Z,1.10
2023-04-02T16:13:26.494Z,0.68
2023-04-02T16:16:02.337Z,0.68
2023-04-02T16:18:47.201Z,0.60
2023-04-02T16:21:21.952Z,0.50
2023-04-02T16:23:49.082Z,0.50
2023-04-02T16:26:36.786Z,0.50
2023-04-02T16:29:12.327Z,0.68
2023-04-02T16:32:00.797Z,0.90
2023-04-02T16:34:52.487Z,1.08
2023-04-02T16:37:27.611Z,1.60
2023-04-02T16:40:22.564Z,1.83
2023-04-02T16:43:13.940Z,2.88
2023-04-02T16:45:52.251Z,4.70
2023-04-02T16:48:46.739Z,2.92
2023-04-02T16:51:31.206Z,1.27
2023-04-02T16:54:05.450Z,1.10
2023-04-02T16:57:02.566Z,0.77
2023-04-02T16:59:48.470Z,0.88
2023-04-02T17:02:31.069Z,0.75
2023-04-02T17:05:32.475Z,0.43
2023-04-02T17:08:21.002Z,0.70
2023-04-02T17:11:06.282Z,1.58
2023-04-02T17:13:35.813Z,1.20
2023-04-02T17:16:30.619Z,1.75
2023-04-02T17:18:59.809Z,2.05
2023-04-02T17:21:28.408Z,1.88
2023-04-02T17:24:02.074Z,1.52
2023-04-02T17:26:32.485Z,1.17
2023-04-02T17:29:02.740Z,1.00
2023-04-02T17:31:34.896Z,0.75
2023-04-02T17:34:16.341Z,1.30
2023-04-02T17:36:57.260Z,0.75
2023-04-02T17:39:35.767Z,1.00
2023-04-02T17:42:13.115Z,1.50
2023-04-02T17:44:54.844Z,1.17
2023-04-02T17:47:23.237Z,1.27
2023-04-02T17:50:16.810Z,0.60
2023-04-02T17:52:53.281Z,0.73
2023-04-02T17:55:40.678Z,1.20
2023-04-02T17:58:32.895Z,0.85
2023-04-02T18:01:12.132Z,0.65
2023-04-02T18:04:08.055Z,0.60
2023-04-02T18:06:46.755Z,0.85
2023-04-02T18:09:31.693Z,0.80
2023-04-02T18:12:24.264Z,1.10
2023-04-02T18:15:24.910Z,0.98
2023-04-02T18:17:58.461Z,1.15
2023-04-02T18:20:51.622Z,1.20
2023-04-02T18:23:41.318Z,0.73
2023-04-02T18:26:19.663Z,0.57
2023-04-02T18:29:07.900Z,0.80
2023-04-02T18:31:45.218Z,0.55
2023-04-02T18:34:26.780Z,0.50
2023-04-02T18:36:56.141Z,0.88
2023-04-02T18:39:44.278Z,3.22
2023-04-02T18:42:44.796Z,2.97
2023-04-02T18:45:36.069Z,2.13
2023-04-02T18:48:31.491Z,1.95
2023-04-02T18:51:00.297Z,2.53
2023-04-02T18:53:30.195Z,1.85
2023-04-02T18:56:01.471Z,2.03
2023-04-02T18:58:40.923Z,2.20
2023-04-02T19:01:10.727Z,1.60
2023-04-02T19:03:45.077Z,2.20
2023-04-02T19:06:19.209Z,2.47
2023-04-02T19:08:51.034Z,1.75
2023-04-02T19:11:28.735Z,1.75
2023-04-02T19:13:58.515Z,1.10
2023-04-02T19:16:55.751Z,1.08
2023-04-02T19:19:27.619Z,0.88
2023-04-02T19:21:53.986Z,1.15
2023-04-02T19:24:36.280Z,2.10
2023-04-02T19:27:21.475Z,1.35
2023-04-02T19:30:16.334Z,1.80
2023-04-02T19:33:10.002Z,2.00
2023-04-02T19:36:17.059Z,1.90
2023-04-02T19:38:58.052Z,2.25
2023-04-02T19:41:39.247Z,5.03
2023-04-02T19:44:11.768Z,3.10
2023-04-02T19:46:39.336Z,6.28
2023-04-02T19:49:11.594Z,4.05
2023-04-02T19:51:38.125Z,2.78
2023-04-02T19:54:04.680Z,1.85
2023-04-02T19:56:31.136Z,1.90
2023-04-02T19:58:58.315Z,1.83
2023-04-02T20:01:26.625Z,1.90
2023-04-02T20:03:53.163Z,1.80
2023-04-02T20:06:19.657Z,1.48
2023-04-02T20:08:46.062Z,1.38
2023-04-02T20:11:12.550Z,1.52
2023-04-02T20:13:39.110Z,2.30
2023-04-02T20:16:06.793Z,3.03
2023-04-02T20:18:34.205Z,2.08
2023-04-02T20:21:04.862Z,2.45
2023-04-02T20:23:31.311Z,2.35
2023-04-02T20:25:57.856Z,2.33
2023-04-02T20:28:26.585Z,3.40
2023-04-02T20:30:53.891Z,2.25
2023-04-02T20:33:23.127Z,2.35
2023-04-02T20:35:51.277Z,2.55
2023-04-02T20:38:18.740Z,4.28
2023-04-02T20:40:52.018Z,2.55
2023-04-02T20:43:18.462Z,2.70
2023-04-02T20:45:54.564Z,3.13
2023-04-02T20:50:49.358Z,2.60
2023-04-02T20:53:17.157Z,3.75
2023-04-02T20:55:45.734Z,2.60
2023-04-02T20:58:18.143Z,3.45
2023-04-02T21:00:45.780Z,2.65
2023-04-02T21:03:12.211Z,3.13
2023-04-02T21:05:46.335Z,2.55
2023-04-02T21:08:13.878Z,2.47
2023-04-02T21:10:40.349Z,3.03
2023-04-02T21:13:07.141Z,2.60
2023-04-02T21:15:33.676Z,2.40
2023-04-02T21:18:00.583Z,2.30
2023-04-02T21:20:27.066Z,2.45
2023-04-02T21:22:53.498Z,2.20
2023-04-02T21:25:20.125Z,2.28
2023-04-02T21:27:46.559Z,2.22
2023-04-02T21:30:13.180Z,2.05
2023-04-02T21:32:39.671Z,2.38
2023-04-02T21:35:07.500Z,1.95
2023-04-02T21:37:33.941Z,2.25
2023-04-02T21:40:00.530Z,2.25
2023-04-02T21:42:27.830Z,2.90
2023-04-02T21:44:55.844Z,2.20
2023-04-02T21:47:23.450Z,2.03
2023-04-02T21:49:49.981Z,2.90
2023-04-02T21:52:16.433Z,2.10
2023-04-02T21:54:42.828Z,3.08
2023-04-02T21:57:09.361Z,2.53
2023-04-02T21:59:35.944Z,2.50
2023-04-02T22:02:02.496Z,3.42
2023-04-02T22:04:30.551Z,2.55
2023-04-02T22:06:57.225Z,2.30
2023-04-02T22:09:25.603Z,2.65
2023-04-02T22:11:55.172Z,2.90
2023-04-02T22:14:23.333Z,2.30
2023-04-02T22:16:49.851Z,2.65
2023-04-02T22:19:17.034Z,2.33
2023-04-02T22:21:43.949Z,2.65
2023-04-02T22:24:13.834Z,2.10
2023-04-02T22:26:41.184Z,2.30
2023-04-02T22:29:08.006Z,2.55
2023-04-02T22:31:35.198Z,2.28
2023-04-02T22:34:02.769Z,2.10
2023-04-02T22:36:30.175Z,1.95
2023-04-02T22:38:58.058Z,1.95
2023-04-02T22:41:27.920Z,2.15
2023-04-02T22:43:58.537Z,2.22
2023-04-02T22:46:26.725Z,1.90
2023-04-02T22:48:53.375Z,2.40
2023-04-02T22:51:21.682Z,4.00
2023-04-02T22:53:49.235Z,1.70
2023-04-02T22:56:22.035Z,2.30
2023-04-02T22:58:49.047Z,1.98
2023-04-02T23:01:28.534Z,2.03
2023-04-02T23:03:55.929Z,2.30
2023-04-02T23:06:23.436Z,1.80
2023-04-02T23:08:49.891Z,1.73
2023-04-02T23:11:24.684Z,2.10
2023-04-02T23:13:52.530Z,2.00
2023-04-02T23:16:20.247Z,1.63
2023-04-02T23:18:48.252Z,2.15
2023-04-02T23:21:16.573Z,2.30
2023-04-02T23:23:43.435Z,2.30
2023-04-02T23:26:13.332Z,2.00
2023-04-02T23:28:40.849Z,3.50
2023-04-02T23:31:11.672Z,2.70
2023-04-02T23:33:38.173Z,3.22
2023-04-02T23:36:09.732Z,2.50
2023-04-02T23:38:36.245Z,3.65
2023-04-02T23:41:02.911Z,5.47
2023-04-02T23:43:29.315Z,2.67
2023-04-02T23:45:55.799Z,3.10
2023-04-02T23:48:22.293Z,2.97
2023-04-02T23:50:48.715Z,2.60
2023-04-02T23:53:16.413Z,3.00
2023-04-02T23:55:43.062Z,2.95
2023-04-02T23:58:09.536Z,2.75
